sensor_id;sensor_type;location;lat;lon;timestamp;P1;durP1;ratioP1;P2;durP2;ratioP2
54384;SDS011;40284;52.878;5.998;2023-04-28T00:01:58;19.05;;;10.85;;
54384;SDS011;40284;52.878;5.998;2023-04-28T00:04:24;13.40;;;9.82;;
54384;SDS011;40284;52.878;5.998;2023-04-28T00:06:50;16.90;;;10.43;;
54384;SDS011;40284;52.878;5.998;2023-04-28T00:09:16;15.35;;;10.25;;
54384;SDS011;40284;52.878;5.998;2023-04-28T00:11:43;16.48;;;10.63;;
54384;SDS011;40284;52.878;5.998;2023-04-28T00:14:10;13.50;;;10.63;;
54384;SDS011;40284;52.878;5.998;2023-04-28T00:16:36;14.00;;;10.48;;
54384;SDS011;40284;52.878;5.998;2023-04-28T00:19:02;17.92;;;10.73;;
54384;SDS011;40284;52.878;5.998;2023-04-28T00:21:28;14.02;;;10.52;;
54384;SDS011;40284;52.878;5.998;2023-04-28T00:23:54;15.73;;;10.45;;
54384;SDS011;40284;52.878;5.998;2023-04-28T00:26:20;16.67;;;11.57;;
54384;SDS011;40284;52.878;5.998;2023-04-28T00:28:46;16.52;;;9.73;;
54384;SDS011;40284;52.878;5.998;2023-04-28T00:31:13;12.60;;;10.07;;
54384;SDS011;40284;52.878;5.998;2023-04-28T00:33:42;19.05;;;10.45;;
54384;SDS011;40284;52.878;5.998;2023-04-28T00:36:09;12.93;;;10.20;;
54384;SDS011;40284;52.878;5.998;2023-04-28T00:38:35;15.43;;;11.50;;
54384;SDS011;40284;52.878;5.998;2023-04-28T00:41:02;21.20;;;10.57;;
54384;SDS011;40284;52.878;5.998;2023-04-28T00:43:28;16.77;;;11.07;;
54384;SDS011;40284;52.878;5.998;2023-04-28T00:45:54;12.65;;;10.32;;
54384;SDS011;40284;52.878;5.998;2023-04-28T00:48:20;18.23;;;11.77;;
54384;SDS011;40284;52.878;5.998;2023-04-28T00:50:48;16.60;;;11.77;;
54384;SDS011;40284;52.878;5.998;2023-04-28T00:53:14;18.38;;;11.45;;
54384;SDS011;40284;52.878;5.998;2023-04-28T00:55:40;14.65;;;10.60;;
54384;SDS011;40284;52.878;5.998;2023-04-28T00:58:07;16.42;;;11.48;;
54384;SDS011;40284;52.878;5.998;2023-04-28T01:00:34;16.02;;;11.35;;
54384;SDS011;40284;52.878;5.998;2023-04-28T01:03:00;19.02;;;11.63;;
54384;SDS011;40284;52.878;5.998;2023-04-28T01:05:27;14.70;;;10.75;;
54384;SDS011;40284;52.878;5.998;2023-04-28T01:07:53;17.95;;;12.05;;
54384;SDS011;40284;52.878;5.998;2023-04-28T01:10:19;15.55;;;10.55;;
54384;SDS011;40284;52.878;5.998;2023-04-28T01:12:46;15.40;;;11.07;;
54384;SDS011;40284;52.878;5.998;2023-04-28T01:15:15;14.23;;;10.65;;
54384;SDS011;40284;52.878;5.998;2023-04-28T01:17:41;12.27;;;10.43;;
54384;SDS011;40284;52.878;5.998;2023-04-28T01:20:08;15.82;;;11.23;;
54384;SDS011;40284;52.878;5.998;2023-04-28T01:22:34;13.30;;;10.63;;
54384;SDS011;40284;52.878;5.998;2023-04-28T01:25:00;16.25;;;10.95;;
54384;SDS011;40284;52.878;5.998;2023-04-28T01:27:28;16.30;;;11.52;;
54384;SDS011;40284;52.878;5.998;2023-04-28T01:29:54;14.82;;;10.48;;
54384;SDS011;40284;52.878;5.998;2023-04-28T01:32:22;18.20;;;10.80;;
54384;SDS011;40284;52.878;5.998;2023-04-28T01:34:48;16.75;;;11.18;;
54384;SDS011;40284;52.878;5.998;2023-04-28T01:37:14;16.02;;;10.18;;
54384;SDS011;40284;52.878;5.998;2023-04-28T01:39:40;15.45;;;10.50;;
54384;SDS011;40284;52.878;5.998;2023-04-28T01:42:06;12.77;;;9.18;;
54384;SDS011;40284;52.878;5.998;2023-04-28T01:44:32;15.40;;;10.38;;
54384;SDS011;40284;52.878;5.998;2023-04-28T01:46:59;15.35;;;10.90;;
54384;SDS011;40284;52.878;5.998;2023-04-28T01:49:25;14.07;;;9.80;;
54384;SDS011;40284;52.878;5.998;2023-04-28T01:51:51;15.65;;;11.32;;
54384;SDS011;40284;52.878;5.998;2023-04-28T01:54:17;14.05;;;9.50;;
54384;SDS011;40284;52.878;5.998;2023-04-28T01:56:43;16.17;;;10.38;;
54384;SDS011;40284;52.878;5.998;2023-04-28T01:59:09;13.45;;;10.18;;
54384;SDS011;40284;52.878;5.998;2023-04-28T02:01:35;14.38;;;10.20;;
54384;SDS011;40284;52.878;5.998;2023-04-28T02:04:01;13.75;;;9.75;;
54384;SDS011;40284;52.878;5.998;2023-04-28T02:06:27;10.63;;;8.88;;
54384;SDS011;40284;52.878;5.998;2023-04-28T02:08:53;13.07;;;10.18;;
54384;SDS011;40284;52.878;5.998;2023-04-28T02:11:20;19.33;;;10.98;;
54384;SDS011;40284;52.878;5.998;2023-04-28T02:13:46;15.40;;;9.75;;
54384;SDS011;40284;52.878;5.998;2023-04-28T02:16:12;12.65;;;9.52;;
54384;SDS011;40284;52.878;5.998;2023-04-28T02:18:38;13.73;;;10.25;;
54384;SDS011;40284;52.878;5.998;2023-04-28T02:21:07;14.35;;;9.48;;
54384;SDS011;40284;52.878;5.998;2023-04-28T02:23:35;11.95;;;9.57;;
54384;SDS011;40284;52.878;5.998;2023-04-28T02:26:01;14.20;;;9.60;;
54384;SDS011;40284;52.878;5.998;2023-04-28T02:28:27;13.02;;;10.45;;
54384;SDS011;40284;52.878;5.998;2023-04-28T02:31:06;13.70;;;9.88;;
54384;SDS011;40284;52.878;5.998;2023-04-28T02:33:33;12.98;;;10.02;;
54384;SDS011;40284;52.878;5.998;2023-04-28T02:35:59;14.85;;;9.95;;
54384;SDS011;40284;52.878;5.998;2023-04-28T02:38:26;12.50;;;9.55;;
54384;SDS011;40284;52.878;5.998;2023-04-28T02:41:02;14.75;;;9.10;;
54384;SDS011;40284;52.878;5.998;2023-04-28T02:43:32;15.05;;;9.75;;
54384;SDS011;40284;52.878;5.998;2023-04-28T02:45:58;14.00;;;9.73;;
54384;SDS011;40284;52.878;5.998;2023-04-28T02:48:24;15.57;;;10.15;;
54384;SDS011;40284;52.878;5.998;2023-04-28T02:50:51;13.43;;;9.98;;
54384;SDS011;40284;52.878;5.998;2023-04-28T02:53:17;17.15;;;9.43;;
54384;SDS011;40284;52.878;5.998;2023-04-28T02:55:44;15.88;;;9.63;;
54384;SDS011;40284;52.878;5.998;2023-04-28T02:58:10;17.60;;;10.90;;
54384;SDS011;40284;52.878;5.998;2023-04-28T03:00:36;12.30;;;9.75;;
54384;SDS011;40284;52.878;5.998;2023-04-28T03:03:02;16.75;;;9.88;;
54384;SDS011;40284;52.878;5.998;2023-04-28T03:05:28;13.70;;;10.10;;
54384;SDS011;40284;52.878;5.998;2023-04-28T03:07:55;14.32;;;10.05;;
54384;SDS011;40284;52.878;5.998;2023-04-28T03:10:21;20.17;;;10.20;;
54384;SDS011;40284;52.878;5.998;2023-04-28T03:12:47;11.75;;;9.23;;
54384;SDS011;40284;52.878;5.998;2023-04-28T03:15:13;14.15;;;9.98;;
54384;SDS011;40284;52.878;5.998;2023-04-28T03:17:39;15.73;;;10.30;;
54384;SDS011;40284;52.878;5.998;2023-04-28T03:20:07;13.38;;;10.00;;
54384;SDS011;40284;52.878;5.998;2023-04-28T03:22:33;16.17;;;10.55;;
54384;SDS011;40284;52.878;5.998;2023-04-28T03:25:00;14.38;;;10.18;;
54384;SDS011;40284;52.878;5.998;2023-04-28T03:27:26;19.70;;;12.80;;
54384;SDS011;40284;52.878;5.998;2023-04-28T03:29:52;14.30;;;10.07;;
54384;SDS011;40284;52.878;5.998;2023-04-28T03:32:18;16.00;;;11.02;;
54384;SDS011;40284;52.878;5.998;2023-04-28T03:34:44;18.20;;;11.27;;
54384;SDS011;40284;52.878;5.998;2023-04-28T03:37:10;16.10;;;10.20;;
54384;SDS011;40284;52.878;5.998;2023-04-28T03:39:38;15.68;;;11.18;;
54384;SDS011;40284;52.878;5.998;2023-04-28T03:42:04;17.40;;;11.70;;
54384;SDS011;40284;52.878;5.998;2023-04-28T03:44:30;15.18;;;10.73;;
54384;SDS011;40284;52.878;5.998;2023-04-28T03:46:56;15.00;;;12.02;;
54384;SDS011;40284;52.878;5.998;2023-04-28T03:49:22;19.13;;;12.18;;
54384;SDS011;40284;52.878;5.998;2023-04-28T03:51:48;19.75;;;13.70;;
54384;SDS011;40284;52.878;5.998;2023-04-28T03:54:15;18.30;;;14.13;;
54384;SDS011;40284;52.878;5.998;2023-04-28T03:56:41;21.83;;;13.02;;
54384;SDS011;40284;52.878;5.998;2023-04-28T03:59:07;20.10;;;13.15;;
54384;SDS011;40284;52.878;5.998;2023-04-28T04:01:35;20.55;;;12.00;;
54384;SDS011;40284;52.878;5.998;2023-04-28T04:04:02;28.42;;;17.67;;
54384;SDS011;40284;52.878;5.998;2023-04-28T04:06:28;21.90;;;13.98;;
54384;SDS011;40284;52.878;5.998;2023-04-28T04:08:54;18.25;;;12.30;;
54384;SDS011;40284;52.878;5.998;2023-04-28T04:11:21;17.33;;;12.55;;
54384;SDS011;40284;52.878;5.998;2023-04-28T04:13:47;18.15;;;13.00;;
54384;SDS011;40284;52.878;5.998;2023-04-28T04:16:13;16.45;;;11.55;;
54384;SDS011;40284;52.878;5.998;2023-04-28T04:18:40;19.55;;;12.25;;
54384;SDS011;40284;52.878;5.998;2023-04-28T04:21:06;15.73;;;11.23;;
54384;SDS011;40284;52.878;5.998;2023-04-28T04:23:32;15.18;;;11.60;;
54384;SDS011;40284;52.878;5.998;2023-04-28T04:25:58;15.73;;;12.15;;
54384;SDS011;40284;52.878;5.998;2023-04-28T04:28:24;22.77;;;13.48;;
54384;SDS011;40284;52.878;5.998;2023-04-28T04:30:50;16.58;;;11.95;;
54384;SDS011;40284;52.878;5.998;2023-04-28T04:33:16;16.00;;;11.32;;
54384;SDS011;40284;52.878;5.998;2023-04-28T04:35:42;16.42;;;11.38;;
54384;SDS011;40284;52.878;5.998;2023-04-28T04:38:09;16.20;;;12.15;;
54384;SDS011;40284;52.878;5.998;2023-04-28T04:40:35;18.20;;;12.90;;
54384;SDS011;40284;52.878;5.998;2023-04-28T04:43:01;14.93;;;11.50;;
54384;SDS011;40284;52.878;5.998;2023-04-28T04:45:27;21.25;;;12.68;;
54384;SDS011;40284;52.878;5.998;2023-04-28T04:47:53;18.40;;;12.43;;
54384;SDS011;40284;52.878;5.998;2023-04-28T04:50:19;16.48;;;11.07;;
54384;SDS011;40284;52.878;5.998;2023-04-28T04:52:45;14.75;;;11.85;;
54384;SDS011;40284;52.878;5.998;2023-04-28T04:55:11;17.90;;;12.02;;
54384;SDS011;40284;52.878;5.998;2023-04-28T04:57:37;15.35;;;11.95;;
54384;SDS011;40284;52.878;5.998;2023-04-28T05:00:04;17.08;;;11.88;;
54384;SDS011;40284;52.878;5.998;2023-04-28T05:02:30;20.02;;;13.07;;
54384;SDS011;40284;52.878;5.998;2023-04-28T05:04:56;18.33;;;11.95;;
54384;SDS011;40284;52.878;5.998;2023-04-28T05:07:23;17.50;;;11.90;;
54384;SDS011;40284;52.878;5.998;2023-04-28T05:09:50;15.10;;;11.80;;
54384;SDS011;40284;52.878;5.998;2023-04-28T05:12:16;18.10;;;11.82;;
54384;SDS011;40284;52.878;5.998;2023-04-28T05:14:42;18.88;;;12.23;;
54384;SDS011;40284;52.878;5.998;2023-04-28T05:17:08;16.35;;;11.18;;
54384;SDS011;40284;52.878;5.998;2023-04-28T05:19:34;14.90;;;11.98;;
54384;SDS011;40284;52.878;5.998;2023-04-28T05:22:00;14.43;;;12.07;;
54384;SDS011;40284;52.878;5.998;2023-04-28T05:24:26;17.35;;;12.35;;
54384;SDS011;40284;52.878;5.998;2023-04-28T05:26:52;17.13;;;11.93;;
54384;SDS011;40284;52.878;5.998;2023-04-28T05:29:19;16.35;;;11.70;;
54384;SDS011;40284;52.878;5.998;2023-04-28T05:31:45;17.77;;;11.85;;
54384;SDS011;40284;52.878;5.998;2023-04-28T05:34:11;16.92;;;12.50;;
54384;SDS011;40284;52.878;5.998;2023-04-28T05:36:38;15.43;;;12.25;;
54384;SDS011;40284;52.878;5.998;2023-04-28T05:39:04;18.70;;;12.68;;
54384;SDS011;40284;52.878;5.998;2023-04-28T05:41:31;15.77;;;12.15;;
54384;SDS011;40284;52.878;5.998;2023-04-28T05:43:57;17.33;;;11.52;;
54384;SDS011;40284;52.878;5.998;2023-04-28T05:46:23;17.15;;;11.82;;
54384;SDS011;40284;52.878;5.998;2023-04-28T05:48:49;16.65;;;11.75;;
54384;SDS011;40284;52.878;5.998;2023-04-28T05:51:15;17.08;;;13.07;;
54384;SDS011;40284;52.878;5.998;2023-04-28T05:53:41;16.42;;;12.30;;
54384;SDS011;40284;52.878;5.998;2023-04-28T05:56:07;19.67;;;12.70;;
54384;SDS011;40284;52.878;5.998;2023-04-28T05:58:33;17.52;;;12.07;;
54384;SDS011;40284;52.878;5.998;2023-04-28T06:00:59;16.17;;;11.18;;
54384;SDS011;40284;52.878;5.998;2023-04-28T06:03:25;20.15;;;12.65;;
54384;SDS011;40284;52.878;5.998;2023-04-28T06:05:51;23.08;;;11.40;;
54384;SDS011;40284;52.878;5.998;2023-04-28T06:08:18;15.75;;;11.45;;
54384;SDS011;40284;52.878;5.998;2023-04-28T06:10:44;17.15;;;12.30;;
54384;SDS011;40284;52.878;5.998;2023-04-28T06:13:10;20.95;;;12.75;;
54384;SDS011;40284;52.878;5.998;2023-04-28T06:15:36;19.25;;;13.05;;
54384;SDS011;40284;52.878;5.998;2023-04-28T06:18:02;16.30;;;12.32;;
54384;SDS011;40284;52.878;5.998;2023-04-28T06:20:31;19.05;;;12.30;;
54384;SDS011;40284;52.878;5.998;2023-04-28T06:22:57;20.10;;;12.38;;
54384;SDS011;40284;52.878;5.998;2023-04-28T06:25:23;18.95;;;12.70;;
54384;SDS011;40284;52.878;5.998;2023-04-28T06:27:49;20.20;;;12.57;;
54384;SDS011;40284;52.878;5.998;2023-04-28T06:30:18;18.45;;;11.88;;
54384;SDS011;40284;52.878;5.998;2023-04-28T06:32:44;16.27;;;11.82;;
54384;SDS011;40284;52.878;5.998;2023-04-28T06:35:10;17.15;;;11.95;;
54384;SDS011;40284;52.878;5.998;2023-04-28T06:37:36;16.13;;;12.07;;
54384;SDS011;40284;52.878;5.998;2023-04-28T06:40:03;17.80;;;11.30;;
54384;SDS011;40284;52.878;5.998;2023-04-28T06:42:29;18.25;;;12.10;;
54384;SDS011;40284;52.878;5.998;2023-04-28T06:44:55;15.82;;;11.43;;
54384;SDS011;40284;52.878;5.998;2023-04-28T06:47:21;14.55;;;11.35;;
54384;SDS011;40284;52.878;5.998;2023-04-28T06:49:47;19.95;;;12.10;;
54384;SDS011;40284;52.878;5.998;2023-04-28T06:52:14;18.02;;;11.40;;
54384;SDS011;40284;52.878;5.998;2023-04-28T06:54:40;16.10;;;11.60;;
54384;SDS011;40284;52.878;5.998;2023-04-28T06:57:06;19.35;;;11.07;;
54384;SDS011;40284;52.878;5.998;2023-04-28T06:59:33;18.33;;;11.65;;
54384;SDS011;40284;52.878;5.998;2023-04-28T07:01:59;14.95;;;10.80;;
54384;SDS011;40284;52.878;5.998;2023-04-28T07:04:25;21.63;;;11.65;;
54384;SDS011;40284;52.878;5.998;2023-04-28T07:06:51;20.10;;;11.00;;
54384;SDS011;40284;52.878;5.998;2023-04-28T07:09:18;16.05;;;10.93;;
54384;SDS011;40284;52.878;5.998;2023-04-28T07:11:44;12.38;;;10.25;;
54384;SDS011;40284;52.878;5.998;2023-04-28T07:14:10;16.67;;;11.25;;
54384;SDS011;40284;52.878;5.998;2023-04-28T07:16:36;17.67;;;11.07;;
54384;SDS011;40284;52.878;5.998;2023-04-28T07:19:02;15.30;;;10.40;;
54384;SDS011;40284;52.878;5.998;2023-04-28T07:21:29;16.80;;;10.95;;
54384;SDS011;40284;52.878;5.998;2023-04-28T07:23:55;17.38;;;10.43;;
54384;SDS011;40284;52.878;5.998;2023-04-28T07:26:21;14.60;;;10.00;;
54384;SDS011;40284;52.878;5.998;2023-04-28T07:28:48;17.55;;;10.40;;
54384;SDS011;40284;52.878;5.998;2023-04-28T07:31:14;23.60;;;15.75;;
54384;SDS011;40284;52.878;5.998;2023-04-28T07:33:40;17.90;;;11.70;;
54384;SDS011;40284;52.878;5.998;2023-04-28T07:36:06;17.67;;;11.43;;
54384;SDS011;40284;52.878;5.998;2023-04-28T07:38:33;20.30;;;14.05;;
54384;SDS011;40284;52.878;5.998;2023-04-28T07:40:59;16.40;;;10.98;;
54384;SDS011;40284;52.878;5.998;2023-04-28T07:43:25;15.43;;;11.90;;
54384;SDS011;40284;52.878;5.998;2023-04-28T07:45:51;16.50;;;11.80;;
54384;SDS011;40284;52.878;5.998;2023-04-28T07:48:18;16.17;;;11.98;;
54384;SDS011;40284;52.878;5.998;2023-04-28T07:50:44;15.23;;;11.15;;
54384;SDS011;40284;52.878;5.998;2023-04-28T07:53:10;18.30;;;11.40;;
54384;SDS011;40284;52.878;5.998;2023-04-28T07:55:36;16.63;;;11.93;;
54384;SDS011;40284;52.878;5.998;2023-04-28T07:58:05;17.88;;;12.02;;
54384;SDS011;40284;52.878;5.998;2023-04-28T08:00:32;16.00;;;12.57;;
54384;SDS011;40284;52.878;5.998;2023-04-28T08:02:58;20.17;;;13.98;;
54384;SDS011;40284;52.878;5.998;2023-04-28T08:05:24;20.15;;;13.90;;
54384;SDS011;40284;52.878;5.998;2023-04-28T08:07:53;20.25;;;13.43;;
54384;SDS011;40284;52.878;5.998;2023-04-28T08:10:19;17.08;;;12.68;;
54384;SDS011;40284;52.878;5.998;2023-04-28T08:12:45;17.60;;;13.32;;
54384;SDS011;40284;52.878;5.998;2023-04-28T08:15:12;17.38;;;11.93;;
54384;SDS011;40284;52.878;5.998;2023-04-28T08:17:38;19.45;;;13.32;;
54384;SDS011;40284;52.878;5.998;2023-04-28T08:20:04;16.02;;;13.85;;
54384;SDS011;40284;52.878;5.998;2023-04-28T08:22:31;20.17;;;13.50;;
54384;SDS011;40284;52.878;5.998;2023-04-28T08:24:57;19.55;;;13.43;;
54384;SDS011;40284;52.878;5.998;2023-04-28T08:27:24;22.17;;;12.40;;
54384;SDS011;40284;52.878;5.998;2023-04-28T08:29:50;16.42;;;11.50;;
54384;SDS011;40284;52.878;5.998;2023-04-28T08:32:17;16.08;;;11.50;;
54384;SDS011;40284;52.878;5.998;2023-04-28T08:34:43;16.83;;;12.25;;
54384;SDS011;40284;52.878;5.998;2023-04-28T08:37:09;17.75;;;12.02;;
54384;SDS011;40284;52.878;5.998;2023-04-28T08:39:35;13.55;;;10.90;;
54384;SDS011;40284;52.878;5.998;2023-04-28T08:42:02;16.95;;;12.63;;
54384;SDS011;40284;52.878;5.998;2023-04-28T08:44:37;12.90;;;10.63;;
54384;SDS011;40284;52.878;5.998;2023-04-28T08:47:08;14.57;;;11.52;;
54384;SDS011;40284;52.878;5.998;2023-04-28T08:49:36;14.38;;;11.60;;
54384;SDS011;40284;52.878;5.998;2023-04-28T08:52:04;16.05;;;11.93;;
54384;SDS011;40284;52.878;5.998;2023-04-28T08:54:34;15.15;;;11.27;;
54384;SDS011;40284;52.878;5.998;2023-04-28T08:57:01;15.85;;;11.02;;
54384;SDS011;40284;52.878;5.998;2023-04-28T08:59:29;16.55;;;11.18;;
54384;SDS011;40284;52.878;5.998;2023-04-28T09:01:55;14.68;;;11.65;;
54384;SDS011;40284;52.878;5.998;2023-04-28T09:04:22;19.92;;;12.85;;
54384;SDS011;40284;52.878;5.998;2023-04-28T09:06:48;17.60;;;13.20;;
54384;SDS011;40284;52.878;5.998;2023-04-28T09:09:18;17.85;;;11.50;;
54384;SDS011;40284;52.878;5.998;2023-04-28T09:11:54;14.85;;;12.32;;
54384;SDS011;40284;52.878;5.998;2023-04-28T09:14:22;15.68;;;11.40;;
54384;SDS011;40284;52.878;5.998;2023-04-28T09:16:48;15.73;;;10.73;;
54384;SDS011;40284;52.878;5.998;2023-04-28T09:19:15;13.27;;;11.30;;
54384;SDS011;40284;52.878;5.998;2023-04-28T09:21:51;14.75;;;11.43;;
54384;SDS011;40284;52.878;5.998;2023-04-28T09:24:39;14.30;;;10.57;;
54384;SDS011;40284;52.878;5.998;2023-04-28T09:27:05;12.25;;;10.75;;
54384;SDS011;40284;52.878;5.998;2023-04-28T09:29:34;12.32;;;10.45;;
54384;SDS011;40284;52.878;5.998;2023-04-28T09:34:43;12.60;;;9.98;;
54384;SDS011;40284;52.878;5.998;2023-04-28T09:39:42;13.82;;;9.63;;
54384;SDS011;40284;52.878;5.998;2023-04-28T09:42:08;10.88;;;8.90;;
54384;SDS011;40284;52.878;5.998;2023-04-28T09:44:34;16.58;;;9.73;;
54384;SDS011;40284;52.878;5.998;2023-04-28T09:47:03;13.50;;;10.45;;
54384;SDS011;40284;52.878;5.998;2023-04-28T09:49:54;13.40;;;10.02;;
54384;SDS011;40284;52.878;5.998;2023-04-28T09:52:21;11.52;;;9.43;;
54384;SDS011;40284;52.878;5.998;2023-04-28T09:54:48;13.57;;;9.93;;
54384;SDS011;40284;52.878;5.998;2023-04-28T09:57:15;11.85;;;9.90;;
54384;SDS011;40284;52.878;5.998;2023-04-28T10:02:09;18.45;;;9.80;;
54384;SDS011;40284;52.878;5.998;2023-04-28T10:04:35;12.75;;;9.60;;
54384;SDS011;40284;52.878;5.998;2023-04-28T10:07:02;14.07;;;9.55;;
54384;SDS011;40284;52.878;5.998;2023-04-28T10:09:28;13.50;;;8.77;;
54384;SDS011;40284;52.878;5.998;2023-04-28T10:11:55;11.95;;;8.90;;
54384;SDS011;40284;52.878;5.998;2023-04-28T10:14:22;12.32;;;9.30;;
54384;SDS011;40284;52.878;5.998;2023-04-28T10:16:49;13.00;;;9.15;;
54384;SDS011;40284;52.878;5.998;2023-04-28T10:19:16;13.65;;;9.70;;
54384;SDS011;40284;52.878;5.998;2023-04-28T10:21:43;13.13;;;10.13;;
54384;SDS011;40284;52.878;5.998;2023-04-28T10:24:14;15.10;;;10.02;;
54384;SDS011;40284;52.878;5.998;2023-04-28T10:29:30;12.45;;;9.68;;
54384;SDS011;40284;52.878;5.998;2023-04-28T10:34:42;10.60;;;8.90;;
54384;SDS011;40284;52.878;5.998;2023-04-28T10:37:08;10.15;;;8.52;;
54384;SDS011;40284;52.878;5.998;2023-04-28T10:39:35;9.80;;;8.30;;
54384;SDS011;40284;52.878;5.998;2023-04-28T10:42:01;9.75;;;7.88;;
54384;SDS011;40284;52.878;5.998;2023-04-28T10:47:03;10.35;;;8.02;;
54384;SDS011;40284;52.878;5.998;2023-04-28T10:58:29;12.02;;;8.30;;
54384;SDS011;40284;52.878;5.998;2023-04-28T11:00:36;11.93;;;8.32;;
54384;SDS011;40284;52.878;5.998;2023-04-28T11:03:02;13.23;;;9.15;;
54384;SDS011;40284;52.878;5.998;2023-04-28T11:05:28;13.90;;;9.02;;
54384;SDS011;40284;52.878;5.998;2023-04-28T11:13:34;15.60;;;9.77;;
54384;SDS011;40284;52.878;5.998;2023-04-28T11:16:03;10.73;;;9.05;;
54384;SDS011;40284;52.878;5.998;2023-04-28T11:18:49;11.95;;;9.10;;
54384;SDS011;40284;52.878;5.998;2023-04-28T11:21:16;12.80;;;10.52;;
54384;SDS011;40284;52.878;5.998;2023-04-28T11:23:43;11.38;;;10.05;;
54384;SDS011;40284;52.878;5.998;2023-04-28T11:26:09;15.23;;;10.80;;
54384;SDS011;40284;52.878;5.998;2023-04-28T11:28:35;16.70;;;11.88;;
54384;SDS011;40284;52.878;5.998;2023-04-28T11:31:15;14.10;;;10.98;;
54384;SDS011;40284;52.878;5.998;2023-04-28T11:33:47;16.27;;;11.40;;
54384;SDS011;40284;52.878;5.998;2023-04-28T11:36:24;23.42;;;13.98;;
54384;SDS011;40284;52.878;5.998;2023-04-28T11:38:50;17.33;;;13.93;;
54384;SDS011;40284;52.878;5.998;2023-04-28T11:41:16;15.27;;;13.10;;
54384;SDS011;40284;52.878;5.998;2023-04-28T11:43:42;16.70;;;13.70;;
54384;SDS011;40284;52.878;5.998;2023-04-28T11:46:08;16.35;;;13.35;;
54384;SDS011;40284;52.878;5.998;2023-04-28T11:48:35;15.90;;;14.30;;
54384;SDS011;40284;52.878;5.998;2023-04-28T11:51:01;21.33;;;15.38;;
54384;SDS011;40284;52.878;5.998;2023-04-28T11:53:41;18.55;;;14.98;;
54384;SDS011;40284;52.878;5.998;2023-04-28T11:56:07;19.70;;;16.40;;
54384;SDS011;40284;52.878;5.998;2023-04-28T11:58:33;23.25;;;18.67;;
54384;SDS011;40284;52.878;5.998;2023-04-28T12:01:09;22.00;;;17.38;;
54384;SDS011;40284;52.878;5.998;2023-04-28T12:03:41;24.38;;;18.90;;
54384;SDS011;40284;52.878;5.998;2023-04-28T12:06:07;27.25;;;21.08;;
54384;SDS011;40284;52.878;5.998;2023-04-28T12:08:33;25.50;;;21.45;;
54384;SDS011;40284;52.878;5.998;2023-04-28T12:11:09;26.45;;;22.05;;
54384;SDS011;40284;52.878;5.998;2023-04-28T12:13:37;26.63;;;21.23;;
54384;SDS011;40284;52.878;5.998;2023-04-28T12:16:04;28.02;;;23.23;;
54384;SDS011;40284;52.878;5.998;2023-04-28T12:18:34;32.70;;;27.17;;
54384;SDS011;40284;52.878;5.998;2023-04-28T12:21:01;33.22;;;27.05;;
54384;SDS011;40284;52.878;5.998;2023-04-28T12:23:31;37.55;;;28.55;;
54384;SDS011;40284;52.878;5.998;2023-04-28T12:25:57;37.53;;;30.52;;
54384;SDS011;40284;52.878;5.998;2023-04-28T12:28:23;40.90;;;31.40;;
54384;SDS011;40284;52.878;5.998;2023-04-28T12:31:02;40.65;;;31.48;;
54384;SDS011;40284;52.878;5.998;2023-04-28T12:33:28;47.20;;;33.17;;
54384;SDS011;40284;52.878;5.998;2023-04-28T12:35:55;39.72;;;35.22;;
54384;SDS011;40284;52.878;5.998;2023-04-28T12:38:24;40.40;;;32.78;;
54384;SDS011;40284;52.878;5.998;2023-04-28T12:40:52;42.60;;;35.97;;
54384;SDS011;40284;52.878;5.998;2023-04-28T12:43:18;44.17;;;37.28;;
54384;SDS011;40284;52.878;5.998;2023-04-28T12:45:47;47.15;;;40.55;;
54384;SDS011;40284;52.878;5.998;2023-04-28T12:48:13;43.85;;;39.13;;
54384;SDS011;40284;52.878;5.998;2023-04-28T12:50:39;45.83;;;40.97;;
54384;SDS011;40284;52.878;5.998;2023-04-28T12:53:05;44.22;;;39.70;;
54384;SDS011;40284;52.878;5.998;2023-04-28T12:55:31;44.35;;;39.53;;
54384;SDS011;40284;52.878;5.998;2023-04-28T12:57:57;48.00;;;42.70;;
54384;SDS011;40284;52.878;5.998;2023-04-28T13:00:23;52.13;;;44.78;;
54384;SDS011;40284;52.878;5.998;2023-04-28T13:02:50;50.17;;;44.80;;
54384;SDS011;40284;52.878;5.998;2023-04-28T13:05:17;52.00;;;46.00;;
54384;SDS011;40284;52.878;5.998;2023-04-28T13:07:46;50.67;;;43.70;;
54384;SDS011;40284;52.878;5.998;2023-04-28T13:10:13;51.17;;;44.05;;
54384;SDS011;40284;52.878;5.998;2023-04-28T13:12:39;50.78;;;43.60;;
54384;SDS011;40284;52.878;5.998;2023-04-28T13:15:06;52.35;;;46.63;;
54384;SDS011;40284;52.878;5.998;2023-04-28T13:17:32;49.70;;;44.28;;
54384;SDS011;40284;52.878;5.998;2023-04-28T13:19:59;54.33;;;44.10;;
54384;SDS011;40284;52.878;5.998;2023-04-28T13:22:29;52.00;;;44.40;;
54384;SDS011;40284;52.878;5.998;2023-04-28T13:24:55;52.10;;;44.85;;
54384;SDS011;40284;52.878;5.998;2023-04-28T13:27:21;51.92;;;44.17;;
54384;SDS011;40284;52.878;5.998;2023-04-28T13:29:48;53.88;;;45.47;;
54384;SDS011;40284;52.878;5.998;2023-04-28T13:32:14;49.63;;;42.50;;
54384;SDS011;40284;52.878;5.998;2023-04-28T13:34:40;47.45;;;41.33;;
54384;SDS011;40284;52.878;5.998;2023-04-28T13:37:07;47.78;;;41.92;;
54384;SDS011;40284;52.878;5.998;2023-04-28T13:39:33;46.72;;;41.17;;
54384;SDS011;40284;52.878;5.998;2023-04-28T13:41:59;47.45;;;41.13;;
54384;SDS011;40284;52.878;5.998;2023-04-28T13:44:25;42.75;;;38.10;;
54384;SDS011;40284;52.878;5.998;2023-04-28T13:46:51;45.08;;;39.78;;
54384;SDS011;40284;52.878;5.998;2023-04-28T13:49:17;44.05;;;39.38;;
54384;SDS011;40284;52.878;5.998;2023-04-28T13:51:44;37.92;;;34.03;;
54384;SDS011;40284;52.878;5.998;2023-04-28T13:54:10;33.95;;;30.23;;
54384;SDS011;40284;52.878;5.998;2023-04-28T13:56:36;34.38;;;30.63;;
54384;SDS011;40284;52.878;5.998;2023-04-28T13:59:02;39.00;;;33.35;;
54384;SDS011;40284;52.878;5.998;2023-04-28T14:01:29;36.28;;;32.45;;
54384;SDS011;40284;52.878;5.998;2023-04-28T14:03:55;33.75;;;30.17;;
54384;SDS011;40284;52.878;5.998;2023-04-28T14:06:21;32.20;;;28.80;;
54384;SDS011;40284;52.878;5.998;2023-04-28T14:08:47;34.20;;;30.60;;
54384;SDS011;40284;52.878;5.998;2023-04-28T14:11:13;30.20;;;27.17;;
54384;SDS011;40284;52.878;5.998;2023-04-28T14:13:40;30.35;;;27.20;;
54384;SDS011;40284;52.878;5.998;2023-04-28T14:16:06;27.05;;;24.23;;
54384;SDS011;40284;52.878;5.998;2023-04-28T14:18:33;28.48;;;25.52;;
54384;SDS011;40284;52.878;5.998;2023-04-28T14:20:59;25.88;;;23.13;;
54384;SDS011;40284;52.878;5.998;2023-04-28T14:23:26;23.23;;;20.83;;
54384;SDS011;40284;52.878;5.998;2023-04-28T14:25:52;22.30;;;19.88;;
54384;SDS011;40284;52.878;5.998;2023-04-28T14:28:20;23.45;;;20.67;;
54384;SDS011;40284;52.878;5.998;2023-04-28T14:30:46;22.33;;;20.02;;
54384;SDS011;40284;52.878;5.998;2023-04-28T14:33:13;23.65;;;20.10;;
54384;SDS011;40284;52.878;5.998;2023-04-28T14:35:40;25.40;;;21.60;;
54384;SDS011;40284;52.878;5.998;2023-04-28T14:38:06;25.77;;;21.45;;
54384;SDS011;40284;52.878;5.998;2023-04-28T14:40:32;28.35;;;22.90;;
54384;SDS011;40284;52.878;5.998;2023-04-28T14:42:58;28.67;;;23.40;;
54384;SDS011;40284;52.878;5.998;2023-04-28T14:45:25;28.98;;;22.95;;
54384;SDS011;40284;52.878;5.998;2023-04-28T14:47:51;29.52;;;23.40;;
54384;SDS011;40284;52.878;5.998;2023-04-28T14:50:17;25.88;;;21.75;;
54384;SDS011;40284;52.878;5.998;2023-04-28T14:52:44;23.88;;;19.20;;